createdAt,value
2023-03-10T00:00:21.545Z,98617.25
2023-03-10T00:02:51.268Z,98624.47
2023-03-10T00:05:22.783Z,98628.19
2023-03-10T00:07:53.324Z,98615.41
2023-03-10T00:10:22.603Z,98619.72
2023-03-10T00:12:51.865Z,98626.09
2023-03-10T00:18:06.870Z,98617.38
2023-03-10T00:20:36.807Z,98623.47
2023-03-10T00:23:05.965Z,98620.94
2023-03-10T00:25:35.352Z,98632.19
2023-03-10T00:28:06.411Z,98634.72
2023-03-10T00:30:36.145Z,98642.41
2023-03-10T00:33:05.775Z,98651.34
2023-03-10T00:35:36.180Z,98647.13
2023-03-10T00:38:07.428Z,98644.31
2023-03-10T00:40:36.931Z,98647.38
2023-03-10T00:43:07.040Z,98647.38
2023-03-10T00:45:37.300Z,98651.16
2023-03-10T00:48:07.724Z,98664.53
2023-03-10T00:50:38.245Z,98661.75
2023-03-10T00:53:10.714Z,98663.84
2023-03-10T00:55:39.979Z,98663.06
2023-03-10T00:58:12.907Z,98664.56
2023-03-10T01:00:42.332Z,98671.84
2023-03-10T01:03:15.172Z,98674.78
2023-03-10T01:05:45.297Z,98683.47
2023-03-10T01:08:15.405Z,98675.13
2023-03-10T01:10:45.195Z,98683.47
2023-03-10T01:13:16.146Z,98688.88
2023-03-10T01:15:49.213Z,98676.53
2023-03-10T01:18:22.062Z,98680.22
2023-03-10T01:20:53.008Z,98684.94
2023-03-10T01:23:25.344Z,98683.03
2023-03-10T01:25:54.871Z,98677.97
2023-03-10T01:28:25.186Z,98673.53
2023-03-10T01:30:54.317Z,98676.84
2023-03-10T01:33:23.584Z,98676.72
2023-03-10T01:35:54.386Z,98672.09
2023-03-10T01:38:23.595Z,98675.66
2023-03-10T01:40:53.369Z,98683.06
2023-03-10T01:43:29.318Z,98683.63
2023-03-10T01:46:20.822Z,98677.88
2023-03-10T01:48:50.972Z,98679.53
2023-03-10T01:51:21.662Z,98678.62
2023-03-10T01:53:51.209Z,98679.94
2023-03-10T01:56:21.231Z,98688.91
2023-03-10T01:58:51.657Z,98692.56
2023-03-10T02:01:22.909Z,98690.59
2023-03-10T02:04:00.176Z,98692.47
2023-03-10T02:06:30.255Z,98697.91
2023-03-10T02:09:19.146Z,98694.12
2023-03-10T02:11:50.417Z,98694.19
2023-03-10T02:14:20.563Z,98688.31
2023-03-10T02:16:49.942Z,98700.53
2023-03-10T02:19:49.797Z,98693.69
2023-03-10T02:22:19.156Z,98698.72
2023-03-10T02:24:56.462Z,98697.06
2023-03-10T02:27:30.940Z,98693.28
2023-03-10T02:30:10.686Z,98691.19
2023-03-10T02:32:44.192Z,98695.69
2023-03-10T02:35:14.187Z,98698.28
2023-03-10T02:37:44.880Z,98688.03
2023-03-10T02:40:34.696Z,98695.78
2023-03-10T02:43:14.782Z,98690.59
2023-03-10T02:45:47.240Z,98694.81
2023-03-10T02:48:28.515Z,98698.72
2023-03-10T02:51:00.164Z,98696.72
2023-03-10T02:53:30.669Z,98698.47
2023-03-10T02:56:01.009Z,98702.41
2023-03-10T02:58:33.128Z,98702.88
2023-03-10T03:01:05.996Z,98693.06
2023-03-10T03:03:36.188Z,98704.72
2023-03-10T03:06:06.572Z,98701.09
2023-03-10T03:08:36.103Z,98699.09
2023-03-10T03:11:07.076Z,98715.25
2023-03-10T03:13:37.215Z,98718.59
2023-03-10T03:16:09.220Z,98710.06
2023-03-10T03:18:39.353Z,98719.13
2023-03-10T03:21:13.036Z,98714.06
2023-03-10T03:23:44.272Z,98717.41
2023-03-10T03:26:19.619Z,98709.59
2023-03-10T03:28:49.378Z,98722.06
2023-03-10T03:31:24.985Z,98709.56
2023-03-10T03:33:54.382Z,98712.81
2023-03-10T03:36:25.335Z,98707.25
2023-03-10T03:38:55.186Z,98714.72
2023-03-10T03:41:25.656Z,98716.34
2023-03-10T03:43:55.242Z,98722.97
2023-03-10T03:46:26.754Z,98732.84
2023-03-10T03:48:56.958Z,98729.53
2023-03-10T03:51:27.309Z,98729.63
2023-03-10T03:53:56.697Z,98728.13
2023-03-10T03:56:28.774Z,98732.22
2023-03-10T03:58:59.349Z,98724.78
2023-03-10T04:01:30.201Z,98724.78
2023-03-10T04:04:00.608Z,98735.81
2023-03-10T04:06:30.697Z,98742.97
2023-03-10T04:09:00.890Z,98729.41
2023-03-10T04:11:31.645Z,98743.66
2023-03-10T04:14:03.672Z,98748.84
2023-03-10T04:16:34.321Z,98742.94
2023-03-10T04:19:08.236Z,98744.34
2023-03-10T04:21:38.581Z,98751.22
2023-03-10T04:24:12.240Z,98747.12
2023-03-10T04:26:41.875Z,98754.00
2023-03-10T04:29:13.072Z,98751.31
2023-03-10T04:31:46.546Z,98761.63
2023-03-10T04:34:20.956Z,98764.63
2023-03-10T04:36:50.721Z,98770.88
2023-03-10T04:39:21.113Z,98772.00
2023-03-10T04:41:50.882Z,98775.06
2023-03-10T04:44:30.931Z,98791.22
2023-03-10T04:47:02.021Z,98790.44
2023-03-10T04:49:41.481Z,98791.78
2023-03-10T04:52:11.856Z,98798.72
2023-03-10T04:54:42.314Z,98798.50
2023-03-10T04:57:11.690Z,98797.03
2023-03-10T04:59:43.028Z,98802.88
2023-03-10T05:02:13.086Z,98813.94
2023-03-10T05:04:43.136Z,98810.69
2023-03-10T05:07:13.197Z,98814.69
2023-03-10T05:09:45.442Z,98825.47
2023-03-10T05:12:15.027Z,98835.25
2023-03-10T05:14:44.971Z,98837.63
2023-03-10T05:17:14.712Z,98844.34
2023-03-10T05:19:45.522Z,98851.81
2023-03-10T05:22:14.853Z,98847.69
2023-03-10T05:24:44.926Z,98856.69
2023-03-10T05:27:15.591Z,98863.84
2023-03-10T05:29:48.548Z,98869.47
2023-03-10T05:32:19.618Z,98871.84
2023-03-10T05:34:51.210Z,98874.28
2023-03-10T05:37:20.488Z,98882.78
2023-03-10T05:39:50.315Z,98874.16
2023-03-10T05:42:20.394Z,98883.38
2023-03-10T05:44:50.502Z,98887.59
2023-03-10T05:47:20.809Z,98894.53
2023-03-10T05:49:50.991Z,98888.22
2023-03-10T05:52:20.828Z,98900.84
2023-03-10T05:54:52.493Z,98900.94
2023-03-10T05:57:22.359Z,98901.91
2023-03-10T05:59:52.601Z,98905.28
2023-03-10T06:02:22.156Z,98901.03
2023-03-10T06:04:51.823Z,98908.16
2023-03-10T06:07:21.614Z,98915.56
2023-03-10T06:09:54.717Z,98921.28
2023-03-10T06:12:23.971Z,98912.53
2023-03-10T06:14:53.864Z,98924.47
2023-03-10T06:17:31.190Z,98923.56
2023-03-10T06:20:07.108Z,98921.13
2023-03-10T06:22:36.483Z,98930.91
2023-03-10T06:25:06.827Z,98929.09
2023-03-10T06:27:36.081Z,98938.41
2023-03-10T06:30:06.795Z,98945.06
2023-03-10T06:32:39.255Z,98949.00
2023-03-10T06:35:13.252Z,98939.88
2023-03-10T06:37:43.026Z,98950.50
2023-03-10T06:40:15.273Z,98960.97
2023-03-10T06:42:45.489Z,98967.19
2023-03-10T06:45:17.744Z,98964.25
2023-03-10T06:47:48.515Z,98977.16
2023-03-10T06:50:19.409Z,98979.63
2023-03-10T06:52:50.426Z,98981.81
2023-03-10T06:55:20.585Z,98986.22
2023-03-10T06:57:49.841Z,98991.28
2023-03-10T07:00:21.253Z,98999.31
2023-03-10T07:02:51.067Z,98999.31
2023-03-10T07:05:23.500Z,99004.25
2023-03-10T07:07:52.902Z,99023.69
2023-03-10T07:10:23.756Z,99028.25
2023-03-10T07:12:55.858Z,99035.53
2023-03-10T07:15:28.304Z,99032.03
2023-03-10T07:17:57.804Z,99048.41
2023-03-10T07:20:27.264Z,99037.47
2023-03-10T07:22:57.335Z,99045.97
2023-03-10T07:25:27.077Z,99048.59
2023-03-10T07:27:56.766Z,99041.06
2023-03-10T07:30:26.351Z,99038.09
2023-03-10T07:32:57.588Z,99041.28
2023-03-10T07:35:28.119Z,99044.00
2023-03-10T07:37:59.012Z,99050.75
2023-03-10T07:40:30.062Z,99047.69
2023-03-10T07:42:59.955Z,99050.69
2023-03-10T07:45:33.782Z,99061.16
2023-03-10T07:48:03.941Z,99063.37
2023-03-10T07:50:34.180Z,99063.66
2023-03-10T07:53:04.202Z,99072.69
2023-03-10T07:55:33.351Z,99079.41
2023-03-10T07:58:02.592Z,99076.00
2023-03-10T08:00:32.506Z,99085.56
2023-03-10T08:03:02.833Z,99079.09
2023-03-10T08:05:40.172Z,99084.69
2023-03-10T08:08:10.836Z,99082.44
2023-03-10T08:10:40.425Z,99072.75
2023-03-10T08:13:09.968Z,99084.19
2023-03-10T08:15:40.504Z,99084.66
2023-03-10T08:18:13.555Z,99088.00
2023-03-10T08:20:43.669Z,99084.44
2023-03-10T08:23:13.193Z,99100.75
2023-03-10T08:25:42.668Z,99096.84
2023-03-10T08:28:11.784Z,99097.94
2023-03-10T08:31:00.875Z,99098.34
2023-03-10T08:33:31.753Z,99109.97
2023-03-10T08:36:06.442Z,99109.03
2023-03-10T08:38:39.632Z,99107.97
2023-03-10T08:41:12.548Z,99123.19
2023-03-10T08:43:42.867Z,99122.56
2023-03-10T08:46:13.745Z,99125.09
2023-03-10T08:48:43.294Z,99125.97
2023-03-10T08:51:15.899Z,99137.16
2023-03-10T08:53:48.024Z,99145.84
2023-03-10T08:56:19.894Z,99138.41
2023-03-10T08:58:49.762Z,99138.19
2023-03-10T09:01:21.960Z,99148.22
2023-03-10T09:03:54.225Z,99140.81
2023-03-10T09:06:23.945Z,99138.72
2023-03-10T09:08:53.652Z,99136.03
2023-03-10T09:11:27.745Z,99142.75
2023-03-10T09:13:57.155Z,99132.25
2023-03-10T09:16:29.222Z,99132.00
2023-03-10T09:18:59.674Z,99146.50
2023-03-10T09:21:33.248Z,99154.31
2023-03-10T09:24:04.156Z,99150.50
2023-03-10T09:26:35.263Z,99154.03
2023-03-10T09:29:05.722Z,99160.13
2023-03-10T09:31:37.906Z,99157.31
2023-03-10T09:34:09.201Z,99153.19
2023-03-10T09:36:39.420Z,99157.75
2023-03-10T09:39:09.555Z,99167.81
2023-03-10T09:42:18.920Z,99162.66
2023-03-10T09:44:53.421Z,99169.16
2023-03-10T09:47:30.076Z,99179.63
2023-03-10T09:50:12.557Z,99177.78
2023-03-10T09:52:46.828Z,99179.59
2023-03-10T09:55:27.102Z,99176.03
2023-03-10T09:57:58.212Z,99185.81
2023-03-10T10:00:35.364Z,99182.12
2023-03-10T10:03:21.372Z,99191.97
2023-03-10T10:05:53.367Z,99193.84
2023-03-10T10:08:35.365Z,99195.59
2023-03-10T10:11:06.561Z,99179.44
2023-03-10T10:13:37.229Z,99191.84
2023-03-10T10:16:34.805Z,99196.03
2023-03-10T10:19:15.902Z,99197.47
2023-03-10T10:22:11.776Z,99197.00
2023-03-10T10:24:53.326Z,99192.41
2023-03-10T10:27:25.110Z,99207.94
2023-03-10T10:29:55.331Z,99206.66
2023-03-10T10:32:24.641Z,99200.47
2023-03-10T10:35:15.204Z,99201.56
2023-03-10T10:37:45.029Z,99212.06
2023-03-10T10:40:34.057Z,99207.00
2023-03-10T10:43:08.290Z,99206.56
2023-03-10T10:45:42.149Z,99212.00
2023-03-10T10:48:48.203Z,99221.56
2023-03-10T10:51:22.862Z,99219.50
2023-03-10T10:53:52.432Z,99221.47
2023-03-10T10:56:25.004Z,99230.00
2023-03-10T10:59:15.162Z,99233.44
2023-03-10T11:02:02.901Z,99226.47
2023-03-10T11:04:48.343Z,99239.44
2023-03-10T11:07:25.430Z,99246.87
2023-03-10T11:09:58.516Z,99247.25
2023-03-10T11:12:44.727Z,99256.59
2023-03-10T11:15:21.773Z,99258.97
2023-03-10T11:17:58.737Z,99259.72
2023-03-10T11:20:33.525Z,99267.56
2023-03-10T11:23:15.977Z,99263.25
2023-03-10T11:25:53.479Z,99264.13
2023-03-10T11:28:41.940Z,99272.62
2023-03-10T11:31:16.475Z,99275.16
2023-03-10T11:34:11.650Z,99281.94
2023-03-10T11:37:03.556Z,99283.50
2023-03-10T11:39:52.665Z,99294.13
2023-03-10T11:42:31.227Z,99295.94
2023-03-10T11:45:19.394Z,99300.47
2023-03-10T11:48:11.611Z,99301.03
2023-03-10T11:51:01.634Z,99305.63
2023-03-10T11:53:53.089Z,99310.84
2023-03-10T11:56:25.798Z,99316.50
2023-03-10T11:59:18.618Z,99322.94
2023-03-10T12:01:59.827Z,99336.03
2023-03-10T12:04:35.716Z,99332.75
2023-03-10T12:07:23.434Z,99334.66
2023-03-10T12:09:57.544Z,99347.59
2023-03-10T12:12:33.144Z,99346.91
2023-03-10T12:15:06.911Z,99351.09
2023-03-10T12:17:37.669Z,99353.03
2023-03-10T12:20:15.173Z,99362.75
2023-03-10T12:22:51.112Z,99371.31
2023-03-10T12:25:38.846Z,99364.16
2023-03-10T12:28:27.405Z,99370.41
2023-03-10T12:31:11.065Z,99376.81
2023-03-10T12:33:43.049Z,99382.84
2023-03-10T12:36:36.147Z,99379.62
2023-03-10T12:39:31.484Z,99385.97
2023-03-10T12:42:03.661Z,99377.09
2023-03-10T12:44:53.393Z,99398.47
2023-03-10T12:47:45.749Z,99396.34
2023-03-10T12:50:32.286Z,99397.22
2023-03-10T12:53:12.622Z,99404.16
2023-03-10T12:56:05.582Z,99399.22
2023-03-10T12:58:37.143Z,99403.25
2023-03-10T13:01:12.136Z,99417.22
2023-03-10T13:03:49.440Z,99424.59
2023-03-10T13:06:34.292Z,99428.28
2023-03-10T13:09:27.618Z,99427.06
2023-03-10T13:12:03.377Z,99433.41
2023-03-10T13:14:39.437Z,99438.16
2023-03-10T13:17:22.039Z,99450.88
2023-03-10T13:20:05.022Z,99456.59
2023-03-10T13:22:35.197Z,99459.91
2023-03-10T13:25:10.256Z,99459.28
2023-03-10T13:27:39.746Z,99461.34
2023-03-10T13:30:20.999Z,99466.75
2023-03-10T13:33:00.321Z,99466.28
2023-03-10T13:35:34.637Z,99457.91
2023-03-10T13:38:10.825Z,99468.31
2023-03-10T13:40:46.060Z,99475.53
2023-03-10T13:43:36.652Z,99483.06
2023-03-10T13:46:14.948Z,99476.28
2023-03-10T13:48:45.750Z,99477.25
2023-03-10T13:51:26.761Z,99492.84
2023-03-10T13:54:11.698Z,99484.88
2023-03-10T13:56:50.836Z,99483.09
2023-03-10T13:59:30.577Z,99493.66
2023-03-10T14:02:02.153Z,99490.34
2023-03-10T14:04:52.125Z,99491.56
2023-03-10T14:07:24.977Z,99504.41
2023-03-10T14:10:11.172Z,99493.81
2023-03-10T14:12:47.358Z,99496.91
2023-03-10T14:15:39.547Z,99503.75
2023-03-10T14:18:09.389Z,99508.31
2023-03-10T14:20:43.202Z,99499.94
2023-03-10T14:23:20.292Z,99510.00
2023-03-10T14:25:53.015Z,99518.34
2023-03-10T14:28:29.001Z,99509.47
2023-03-10T14:31:00.424Z,99519.00
2023-03-10T14:36:13.424Z,99523.78
2023-03-10T14:38:45.125Z,99533.50
2023-03-10T14:41:16.622Z,99534.63
2023-03-10T14:43:50.938Z,99537.19
2023-03-10T14:49:06.608Z,99533.81
2023-03-10T14:51:39.838Z,99536.97
2023-03-10T14:54:19.626Z,99542.69
2023-03-10T14:56:59.789Z,99551.41
2023-03-10T14:59:31.664Z,99549.94
2023-03-10T15:02:10.028Z,99563.12
2023-03-10T15:04:39.462Z,99564.53
2023-03-10T15:07:13.729Z,99562.00
2023-03-10T15:09:43.061Z,99563.59
2023-03-10T15:12:16.612Z,99565.81
2023-03-10T15:14:53.394Z,99563.78
2023-03-10T15:17:23.805Z,99571.88
2023-03-10T15:19:53.334Z,99576.66
2023-03-10T15:22:23.437Z,99581.78
2023-03-10T15:24:53.568Z,99585.66
2023-03-10T15:27:22.854Z,99592.69
2023-03-10T15:29:52.968Z,99596.06
2023-03-10T15:32:22.778Z,99601.03
2023-03-10T15:34:52.942Z,99600.00
2023-03-10T15:37:22.897Z,99607.72
2023-03-10T15:39:52.749Z,99619.87
2023-03-10T15:42:22.482Z,99622.22
2023-03-10T15:44:53.394Z,99633.53
2023-03-10T15:47:23.625Z,99632.22
2023-03-10T15:49:53.387Z,99632.53
2023-03-10T15:52:24.427Z,99640.19
2023-03-10T15:54:53.588Z,99642.81
2023-03-10T15:57:23.836Z,99648.91
2023-03-10T15:59:53.341Z,99648.91
2023-03-10T16:02:22.682Z,99641.16
2023-03-10T16:04:52.916Z,99652.34
2023-03-10T16:07:22.754Z,99662.62
2023-03-10T16:09:52.838Z,99665.03
2023-03-10T16:12:23.118Z,99668.56
2023-03-10T16:14:52.533Z,99671.19
2023-03-10T16:17:22.167Z,99673.59
2023-03-10T16:19:52.061Z,99667.72
2023-03-10T16:22:21.754Z,99671.19
2023-03-10T16:24:51.404Z,99671.88
2023-03-10T16:27:20.734Z,99675.97
2023-03-10T16:29:50.440Z,99679.97
2023-03-10T16:32:20.571Z,99668.13
2023-03-10T16:34:49.693Z,99666.84
2023-03-10T16:37:19.412Z,99661.75
2023-03-10T16:39:49.193Z,99670.72
2023-03-10T16:42:18.321Z,99664.75
2023-03-10T16:44:48.381Z,99667.22
2023-03-10T16:47:18.613Z,99667.94
2023-03-10T16:49:48.936Z,99677.41
2023-03-10T16:52:18.352Z,99684.22
2023-03-10T16:54:48.236Z,99688.25
2023-03-10T16:57:18.675Z,99693.22
2023-03-10T16:59:51.370Z,99685.59
2023-03-10T17:02:21.865Z,99685.41
2023-03-10T17:04:54.866Z,99696.72
2023-03-10T17:07:25.873Z,99698.69
2023-03-10T17:09:55.520Z,99696.34
2023-03-10T17:12:25.870Z,99688.34
2023-03-10T17:14:58.630Z,99685.69
2023-03-10T17:17:31.051Z,99687.94
2023-03-10T17:20:02.539Z,99679.66
2023-03-10T17:22:32.474Z,99683.22
2023-03-10T17:25:02.342Z,99688.50
2023-03-10T17:27:33.322Z,99692.97
2023-03-10T17:30:02.928Z,99689.50
2023-03-10T17:32:33.245Z,99691.09
2023-03-10T17:35:03.241Z,99693.50
2023-03-10T17:37:33.732Z,99701.50
2023-03-10T17:40:05.801Z,99698.16
2023-03-10T17:42:35.752Z,99686.22
2023-03-10T17:45:07.169Z,99690.00
2023-03-10T17:47:38.285Z,99688.59
2023-03-10T17:50:08.227Z,99693.22
2023-03-10T17:52:38.035Z,99689.75
2023-03-10T17:55:08.235Z,99687.69
2023-03-10T17:57:40.649Z,99687.47
2023-03-10T18:00:11.451Z,99689.37
2023-03-10T18:02:40.970Z,99690.53
2023-03-10T18:05:11.423Z,99691.91
2023-03-10T18:07:40.574Z,99694.38
2023-03-10T18:10:13.168Z,99698.66
2023-03-10T18:12:43.652Z,99697.78
2023-03-10T18:15:14.915Z,99706.31
2023-03-10T18:17:44.732Z,99706.44
2023-03-10T18:20:15.805Z,99707.47
2023-03-10T18:22:45.465Z,99702.31
2023-03-10T18:25:16.377Z,99711.97
2023-03-10T18:27:47.257Z,99718.19
2023-03-10T18:30:17.572Z,99720.72
2023-03-10T18:32:47.042Z,99722.34
2023-03-10T18:35:16.682Z,99720.91
2023-03-10T18:37:47.631Z,99723.59
2023-03-10T18:40:18.012Z,99730.41
2023-03-10T18:42:49.516Z,99730.69
2023-03-10T18:45:19.495Z,99734.44
2023-03-10T18:47:49.512Z,99729.47
2023-03-10T18:50:19.037Z,99729.00
2023-03-10T18:52:49.118Z,99729.78
2023-03-10T18:55:18.868Z,99732.97
2023-03-10T18:57:49.375Z,99737.84
2023-03-10T19:00:20.605Z,99744.63
2023-03-10T19:02:53.937Z,99747.72
2023-03-10T19:05:23.574Z,99744.34
2023-03-10T19:07:53.839Z,99740.25
2023-03-10T19:10:23.499Z,99741.59
2023-03-10T19:12:53.385Z,99742.50
2023-03-10T19:15:24.279Z,99747.19
2023-03-10T19:17:54.599Z,99745.06
2023-03-10T19:20:24.901Z,99738.19
2023-03-10T19:22:56.185Z,99736.13
2023-03-10T19:25:25.749Z,99749.19
2023-03-10T19:27:57.204Z,99746.81
2023-03-10T19:30:27.049Z,99755.31
2023-03-10T19:32:57.244Z,99765.34
2023-03-10T19:35:26.706Z,99766.59
2023-03-10T19:37:57.041Z,99765.59
2023-03-10T19:40:26.502Z,99761.66
2023-03-10T19:42:56.648Z,99759.50
2023-03-10T19:45:26.513Z,99779.66
2023-03-10T19:47:58.562Z,99776.94
2023-03-10T19:50:28.548Z,99770.09
2023-03-10T19:52:59.255Z,99781.91
2023-03-10T19:55:28.572Z,99789.16
2023-03-10T19:57:58.997Z,99786.50
2023-03-10T20:00:31.896Z,99800.91
2023-03-10T20:03:03.970Z,99801.69
2023-03-10T20:05:34.043Z,99805.78
2023-03-10T20:08:03.915Z,99803.31
2023-03-10T20:10:33.349Z,99801.34
2023-03-10T20:13:02.883Z,99818.03
2023-03-10T20:15:34.095Z,99813.00
2023-03-10T20:18:04.452Z,99823.97
2023-03-10T20:20:35.352Z,99818.91
2023-03-10T20:23:04.856Z,99816.50
2023-03-10T20:25:34.570Z,99815.69
2023-03-10T20:28:04.241Z,99807.09
2023-03-10T20:30:34.645Z,99806.59
2023-03-10T20:33:05.377Z,99814.59
2023-03-10T20:35:35.420Z,99818.25
2023-03-10T20:38:05.100Z,99820.28
2023-03-10T20:40:34.779Z,99824.63
2023-03-10T20:43:04.537Z,99825.97
2023-03-10T20:45:34.557Z,99826.91
2023-03-10T20:48:04.547Z,99825.84
2023-03-10T20:50:34.118Z,99825.34
2023-03-10T20:53:04.661Z,99826.84
2023-03-10T20:55:34.122Z,99827.38
2023-03-10T20:58:03.952Z,99833.37
2023-03-10T21:00:33.599Z,99832.53
2023-03-10T21:03:03.448Z,99837.03
2023-03-10T21:05:33.862Z,99830.47
2023-03-10T21:08:04.083Z,99833.75
2023-03-10T21:10:33.598Z,99845.84
2023-03-10T21:13:02.702Z,99849.28
2023-03-10T21:15:33.022Z,99856.00
2023-03-10T21:18:02.083Z,99853.34
2023-03-10T21:20:33.414Z,99844.94
2023-03-10T21:23:02.649Z,99852.62
2023-03-10T21:25:32.509Z,99851.00
2023-03-10T21:28:02.814Z,99854.38
2023-03-10T21:30:34.217Z,99858.56
2023-03-10T21:33:04.657Z,99859.50
2023-03-10T21:35:37.591Z,99870.59
2023-03-10T21:38:07.709Z,99871.53
2023-03-10T21:40:37.133Z,99866.41
2023-03-10T21:43:06.996Z,99875.84
2023-03-10T21:45:38.225Z,99886.06
2023-03-10T21:48:09.078Z,99886.87
2023-03-10T21:50:39.122Z,99884.34
2023-03-10T21:53:09.723Z,99893.75
2023-03-10T21:55:38.857Z,99889.47
2023-03-10T21:58:08.642Z,99880.03
2023-03-10T22:00:38.193Z,99889.31
2023-03-10T22:03:08.348Z,99897.81
2023-03-10T22:05:37.710Z,99896.16
2023-03-10T22:08:07.315Z,99896.19
2023-03-10T22:10:36.750Z,99890.34
2023-03-10T22:13:06.109Z,99909.03
2023-03-10T22:15:35.863Z,99909.87
2023-03-10T22:18:05.405Z,99909.91
2023-03-10T22:20:35.059Z,99912.47
2023-03-10T22:23:05.874Z,99910.75
2023-03-10T22:25:35.578Z,99914.19
2023-03-10T22:28:06.017Z,99915.88
2023-03-10T22:30:35.249Z,99919.25
2023-03-10T22:33:07.668Z,99916.53
2023-03-10T22:35:38.801Z,99913.69
2023-03-10T22:38:08.961Z,99918.06
2023-03-10T22:40:38.045Z,99911.38
2023-03-10T22:43:07.285Z,99916.63
2023-03-10T22:45:39.281Z,99926.03
2023-03-10T22:48:08.705Z,99922.59
2023-03-10T22:50:41.926Z,99926.00
2023-03-10T22:53:14.136Z,99926.78
2023-03-10T22:55:47.320Z,99925.03
2023-03-10T22:58:16.928Z,99924.28
2023-03-10T23:00:47.131Z,99928.22
2023-03-10T23:03:16.768Z,99916.69
2023-03-10T23:05:48.092Z,99919.72
2023-03-10T23:08:17.769Z,99922.47
2023-03-10T23:10:47.972Z,99920.84
2023-03-10T23:13:18.244Z,99927.16
2023-03-10T23:15:48.475Z,99913.47
2023-03-10T23:18:18.096Z,99923.69
2023-03-10T23:20:49.869Z,99917.44
2023-03-10T23:23:19.175Z,99926.13
2023-03-10T23:25:51.715Z,99924.44
2023-03-10T23:28:22.372Z,99922.97
2023-03-10T23:30:54.051Z,99910.34
2023-03-10T23:33:24.920Z,99912.09
2023-03-10T23:35:57.121Z,99901.75
2023-03-10T23:38:28.871Z,99905.25
2023-03-10T23:40:59.026Z,99916.31
2023-03-10T23:43:30.561Z,99907.53
2023-03-10T23:46:07.619Z,99913.69
2023-03-10T23:48:37.156Z,99904.66
2023-03-10T23:51:07.066Z,99905.56
2023-03-10T23:53:36.395Z,99897.78
2023-03-10T23:56:06.527Z,99896.81
2023-03-10T23:58:36.221Z,99893.47
